Airfield :
LOGIN :

Register | Disclaimer

   EN    FR    IT 

 










Legend :    VFR   Marginal VFR   IFR   Intensive IFR   Very Intensive IFR
Visi :
Ceiling :
>= 8 km
>= 3000ft
5 to 8 km
1000 to 3000 ft
1500m to 5 km
500 to 1000 ft
800 to 1500m
200 to 500 ft
< 800m
< 200 ft
Symbols :   Thunderstorms  Fog  Heavy snow  Heavy precipitations  Wind > 20 kt
SIGMETs :     Misc.  Thunderstorms  Icing  Turbulence  Mountain Waves  Volcanic Ashes







- Airport Elevation : 659 ft
- IATA code : LGG


EBLG - Liège

CURRENT METAR :
  • 272250Z 18006KT CAVOK 20/12 Q1017 NOSIG

EXPIRED METARs :
  • 272220Z 17006KT CAVOK 20/12 Q1017 NOSIG
  • 272150Z 15009KT CAVOK 21/12 Q1017 NOSIG
  • 272120Z 14007KT 110V170 CAVOK 20/13 Q1017 NOSIG
  • 272050Z 15008KT CAVOK 20/13 Q1017 NOSIG
  • 272020Z 15010KT 120V180 CAVOK 21/13 Q1017 NOSIG

TAF COR TAF EBLG
Valid from the 27 at 18:00 until the 29 at 00:00 UTC


271900Z 2718/2824 10005KT 9999 FEW045TCU
PROB30
TEMPO 2712/2802 VRB20G35KT 2500 +SHRA TSRAGR
TEMPO 2802/2807 3000 BR
PROB30
TEMPO 2803/2806 1500 MIFG
PROB30
TEMPO 2813/2824 VRB20G35KT 2500 +SHRA TSRAGR
No reported NOTAMs for that airfield.



MET'MAP, your aeronautical weather chart ! - Copyright ORBIFLY December 2007 - Disclaimer

ORBIFLY MET'MAP TEAM :

Programming & Development : Alexandra Zaïnal
Concept & Development : Baudouin d'Aumeries
Co-Development & Prog : Marc-Olivier Méhu
Technical & hardware support : Manuel Goepfert

Contact : metmap@orbifly.com




SOURCES & CREDITS :

   NOAA